Time;durP1;ratioP1;P1;durP2;ratioP2;P2;SDS_P1;SDS_P2;PMS_P1;PMS_P2;Temp;Humidity;BMP_temperature;BMP_pressure;BME280_temperature;BME280_humidity;BME280_pressure;Samples;Min_cycle;Max_cycle;Signal;HPM_P1;HPM_P2
2023/06/17 00:01:46;;;;;;;6.30;5.80;;;;;;;17.78;88.64;100181.50;5079167;28;20182;-76
2023/06/17 00:04:11;;;;;;;6.23;5.63;;;;;;;17.72;89.07;100188.75;5087218;28;20236;-75
2023/06/17 00:06:36;;;;;;;7.00;6.30;;;;;;;17.65;86.91;100183.75;5085352;28;20201;-76
2023/06/17 00:09:02;;;;;;;6.37;5.87;;;;;;;17.59;87.23;100183.13;5083642;28;20182;-76
2023/06/17 00:11:28;;;;;;;6.37;5.87;;;;;;;17.54;87.19;100180.72;5078874;28;20212;-74
2023/06/17 00:13:54;;;;;;;6.57;6.00;;;;;;;17.50;87.09;100177.38;5086136;28;20194;-75
2023/06/17 00:16:20;;;;;;;6.80;6.17;;;;;;;17.46;86.86;100180.16;5083522;28;20230;-75
2023/06/17 00:18:47;;;;;;;6.60;6.07;;;;;;;17.40;87.03;100177.78;5078897;28;20316;-74
2023/06/17 00:21:13;;;;;;;6.27;5.70;;;;;;;17.34;87.60;100155.34;5089508;28;20337;-75
2023/06/17 00:23:39;;;;;;;6.27;5.77;;;;;;;17.29;88.63;100649.88;5084736;28;20186;-75
2023/06/17 00:26:05;;;;;;;6.10;5.70;;;;;;;17.26;89.92;100176.56;5091479;28;20184;-75
2023/06/17 00:28:30;;;;;;;6.63;5.77;;;;;;;17.21;90.33;100168.03;5095382;28;20682;-75
2023/06/17 00:30:55;;;;;;;6.07;5.57;;;;;;;17.16;90.61;100172.59;5088787;28;20210;-75
2023/06/17 00:33:21;;;;;;;5.97;5.57;;;;;;;17.08;89.90;100175.50;5089374;28;20265;-75
2023/06/17 00:35:46;;;;;;;6.13;5.63;;;;;;;17.00;89.48;100172.31;5075641;28;20268;-75
2023/06/17 00:38:11;;;;;;;6.00;5.50;;;;;;;16.91;89.42;100163.03;5083814;28;20217;-75
2023/06/17 00:40:37;;;;;;;6.43;5.93;;;;;;;16.84;89.67;100172.84;5085089;28;20217;-75
2023/06/17 00:43:02;;;;;;;6.13;5.67;;;;;;;16.74;88.40;100184.56;5080187;28;20215;-76
2023/06/17 00:45:27;;;;;;;6.60;6.00;;;;;;;16.62;87.41;100172.78;5086443;28;20271;-75
2023/06/17 00:47:53;;;;;;;6.47;5.87;;;;;;;16.51;86.85;100170.56;5095405;28;20181;-76
2023/06/17 00:50:19;;;;;;;6.70;6.10;;;;;;;16.45;86.58;100176.00;5097405;28;20682;-76
2023/06/17 00:52:45;;;;;;;6.00;5.60;;;;;;;16.42;86.94;100171.72;5083250;28;20186;-76
2023/06/17 00:55:11;;;;;;;6.13;5.63;;;;;;;16.42;86.91;100176.13;5094731;28;20203;-76
2023/06/17 00:57:38;;;;;;;6.20;5.70;;;;;;;16.44;88.77;100172.53;5092769;28;20177;-75
2023/06/17 01:00:09;;;;;;;6.70;6.20;;;;;;;16.46;89.79;100168.09;5081688;28;20328;-76
2023/06/17 01:02:39;;;;;;;5.90;5.40;;;;;;;16.42;89.27;100176.94;5085592;28;20773;-76
2023/06/17 01:05:11;;;;;;;6.27;5.73;;;;;;;16.37;88.60;100164.97;5092503;28;20190;-75
2023/06/17 01:08:00;;;;;;;5.73;5.33;;;;;;;16.34;88.21;100178.13;5085926;28;20208;-75
2023/06/17 01:10:54;;;;;;;6.27;5.77;;;;;;;16.27;88.77;100174.88;5095982;28;20212;-75
2023/06/17 01:13:22;;;;;;;6.23;5.63;;;;;;;16.27;89.83;100174.88;5077474;28;20206;-75
2023/06/17 01:15:49;;;;;;;6.47;5.97;;;;;;;16.28;91.46;100168.75;5080513;28;20684;-75
2023/06/17 01:18:17;;;;;;;6.63;6.10;;;;;;;16.29;92.85;100166.09;5080688;28;20210;-74
2023/06/17 01:20:44;;;;;;;6.60;6.00;;;;;;;16.29;93.45;100167.84;5088799;28;20233;-75
2023/06/17 01:23:11;;;;;;;6.57;5.97;;;;;;;16.27;93.32;100175.75;5090060;28;20180;-75
2023/06/17 01:25:37;;;;;;;6.90;6.40;;;;;;;16.25;93.83;100164.50;5086137;28;20191;-75
2023/06/17 01:28:19;;;;;;;6.77;6.17;;;;;;;16.27;94.57;100170.53;5076380;28;20643;-75
2023/06/17 01:30:47;;;;;;;6.90;6.37;;;;;;;16.26;95.11;100173.19;5087423;28;20220;-74
2023/06/17 01:33:14;;;;;;;6.40;5.80;;;;;;;16.23;95.16;100174.13;5086556;28;20192;-75
2023/06/17 01:35:49;;;;;;;7.03;6.43;;;;;;;16.22;95.36;100175.03;5082954;28;20188;-74
2023/06/17 01:38:41;;;;;;;7.23;6.63;;;;;;;16.21;95.97;100177.72;5084692;28;20207;-74
2023/06/17 01:41:14;;;;;;;6.50;6.00;;;;;;;16.19;96.48;100171.69;5082001;28;20738;-75
2023/06/17 01:43:42;;;;;;;6.20;5.70;;;;;;;16.16;96.26;100175.25;5090444;28;20196;-75
2023/06/17 01:46:09;;;;;;;6.00;5.50;;;;;;;16.11;95.40;100175.41;5090403;28;20197;-73
2023/06/17 01:48:35;;;;;;;6.70;6.10;;;;;;;16.07;94.22;100173.81;5086573;28;20188;-74
2023/06/17 01:51:01;;;;;;;7.00;6.30;;;;;;;16.05;93.84;100167.78;5080859;28;20802;-76
2023/06/17 01:53:26;;;;;;;6.73;6.23;;;;;;;16.04;94.17;100170.44;5083332;28;20181;-76
2023/06/17 01:55:52;;;;;;;6.90;6.30;;;;;;;16.02;95.04;100174.88;5085345;28;20187;-76
2023/06/17 01:58:17;;;;;;;6.60;6.00;;;;;;;15.99;95.04;100162.75;5084192;28;20204;-74
2023/06/17 02:00:43;;;;;;;6.57;5.97;;;;;;;15.94;94.86;100172.53;5094189;28;20208;-76
2023/06/17 02:03:08;;;;;;;6.13;5.53;;;;;;;15.90;94.19;100170.91;5088982;28;20338;-75
2023/06/17 02:05:33;;;;;;;7.00;6.40;;;;;;;15.87;93.97;100173.63;5084028;28;20191;-77
2023/06/17 02:07:59;;;;;;;6.70;6.13;;;;;;;15.84;94.18;100175.38;5088247;28;20660;-74
2023/06/17 02:10:25;;;;;;;5.73;5.33;;;;;;;15.84;94.96;100171.94;5092289;28;20234;-74
2023/06/17 02:12:51;;;;;;;6.73;6.17;;;;;;;15.80;95.10;100171.19;5083950;28;20193;-77
2023/06/17 02:15:16;;;;;;;7.20;6.60;;;;;;;15.75;94.56;100169.59;5082489;28;20215;-74
2023/06/17 02:17:42;;;;;;;7.00;6.40;;;;;;;15.67;94.05;100172.47;5085559;28;20683;-75
2023/06/17 02:20:09;;;;;;;7.67;6.63;;;;;;;15.60;94.82;100177.03;5081721;28;20212;-75
2023/06/17 02:22:35;;;;;;;6.93;6.33;;;;;;;15.59;96.34;100169.25;5083510;28;20196;-74
2023/06/17 02:25:02;;;;;;;6.37;5.87;;;;;;;15.58;97.34;100171.00;5086591;28;20196;-75
2023/06/17 02:27:28;;;;;;;7.40;6.70;;;;;;;15.54;97.82;100165.03;5083677;28;20272;-75
2023/06/17 02:29:53;;;;;;;6.90;6.40;;;;;;;15.53;98.72;100168.53;5089789;28;20646;-75
2023/06/17 02:32:18;;;;;;;7.07;6.57;;;;;;;15.53;98.89;100165.09;5082445;28;20197;-74
2023/06/17 02:34:47;;;;;;;6.43;5.93;;;;;;;15.50;98.69;100163.41;5093376;28;20184;-74
2023/06/17 02:37:13;;;;;;;6.50;6.00;;;;;;;15.48;98.82;100162.63;5084956;28;20215;-74
2023/06/17 02:39:38;;;;;;;6.70;6.10;;;;;;;15.47;99.47;100160.94;5084351;28;20723;-75
2023/06/17 02:42:04;;;;;;;6.23;5.77;;;;;;;15.46;99.70;100158.34;5082402;28;20187;-73
2023/06/17 02:44:29;;;;;;;6.57;6.07;;;;;;;15.42;99.09;100160.22;5084977;28;20196;-75
2023/06/17 02:46:55;;;;;;;6.70;6.20;;;;;;;15.35;98.05;100161.31;5083541;28;20211;-76
2023/06/17 02:49:20;;;;;;;6.87;6.17;;;;;;;15.28;97.99;100154.56;5082712;28;20189;-75
2023/06/17 02:51:46;;;;;;;6.80;6.17;;;;;;;15.24;98.60;100159.88;5095299;28;20212;-75
2023/06/17 02:54:12;;;;;;;7.50;6.90;;;;;;;15.21;98.94;100162.56;5079904;28;20186;-75
2023/06/17 02:56:37;;;;;;;7.07;6.47;;;;;;;15.19;98.78;100161.78;5081767;28;20232;-75
2023/06/17 02:59:02;;;;;;;7.30;6.60;;;;;;;15.15;98.94;100162.75;5077637;28;20213;-74
2023/06/17 03:01:28;;;;;;;7.83;6.93;;;;;;;15.09;98.07;100163.81;5082657;28;22104;-74
2023/06/17 03:03:55;;;;;;;7.87;7.17;;;;;;;15.03;98.20;100163.13;5078607;28;20198;-75
2023/06/17 03:06:21;;;;;;;7.30;6.70;;;;;;;14.96;98.17;100172.00;5079784;28;20282;-75
2023/06/17 03:08:47;;;;;;;6.83;6.33;;;;;;;14.90;98.36;100166.06;5082122;28;20275;-74
2023/06/17 03:11:12;;;;;;;6.97;6.37;;;;;;;14.86;98.47;100171.41;5082095;28;20224;-75
2023/06/17 03:13:37;;;;;;;6.60;6.07;;;;;;;14.81;98.65;100168.94;5094375;28;20184;-74
2023/06/17 03:16:05;;;;;;;6.50;6.00;;;;;;;14.78;98.90;100172.50;5085565;28;20204;-75
2023/06/17 03:18:30;;;;;;;6.60;6.10;;;;;;;14.77;98.93;100176.00;5080624;28;20203;-74
2023/06/17 03:20:56;;;;;;;6.90;6.30;;;;;;;14.73;98.38;100176.97;5080982;28;20227;-73
2023/06/17 03:23:21;;;;;;;6.70;6.20;;;;;;;14.70;98.47;100174.47;5081546;28;20207;-74
2023/06/17 03:25:51;;;;;;;6.90;6.40;;;;;;;14.68;98.52;100181.47;5088417;28;20181;-74
2023/06/17 03:28:17;;;;;;;7.00;6.40;;;;;;;14.67;98.58;100173.66;5082415;28;20233;-75
2023/06/17 03:30:43;;;;;;;6.97;6.37;;;;;;;14.64;98.76;100180.66;5070708;28;20716;-75
2023/06/17 03:33:09;;;;;;;6.90;6.20;;;;;;;14.64;98.91;100192.84;5087682;28;20184;-76
2023/06/17 03:35:34;;;;;;;7.10;6.60;;;;;;;14.66;98.96;100185.84;5083811;28;20191;-75
2023/06/17 03:38:01;;;;;;;7.63;6.93;;;;;;;14.67;98.89;100190.13;5082836;28;20207;-76
2023/06/17 03:40:26;;;;;;;6.67;6.03;;;;;;;14.69;98.83;100188.38;5081203;28;20232;-75
2023/06/17 03:42:51;;;;;;;6.77;6.17;;;;;;;14.73;98.56;100183.97;5083303;28;20192;-75
2023/06/17 03:45:17;;;;;;;7.70;7.10;;;;;;;14.78;98.32;100187.28;5085956;28;20187;-76
2023/06/17 03:47:42;;;;;;;7.83;7.07;;;;;;;14.86;97.04;100180.09;5087691;28;21010;-76
2023/06/17 03:50:08;;;;;;;7.93;7.23;;;;;;;14.92;97.02;100181.69;5084499;28;20238;-75
2023/06/17 03:52:33;;;;;;;8.10;7.50;;;;;;;15.02;97.20;100190.09;5081310;28;20182;-75
2023/06/17 03:54:59;;;;;;;6.80;6.23;;;;;;;15.18;97.30;100183.53;5086001;28;20709;-75
2023/06/17 03:57:25;;;;;;;6.80;6.20;;;;;;;15.41;96.58;100186.34;5078862;28;20244;-76
2023/06/17 03:59:51;;;;;;;7.33;6.40;;;;;;;15.61;95.77;100178.72;5084781;28;20614;-75
2023/06/17 04:02:16;;;;;;;6.20;5.70;;;;;;;15.75;95.22;100180.91;5083236;28;20176;-75
2023/06/17 04:04:42;;;;;;;5.90;5.47;;;;;;;15.84;95.22;100183.22;5081985;28;20193;-74
2023/06/17 04:07:08;;;;;;;6.43;5.93;;;;;;;15.89;95.21;100179.63;5083950;28;20592;-75
2023/06/17 04:09:33;;;;;;;6.57;6.07;;;;;;;15.90;94.83;100187.41;5082947;28;20190;-75
2023/06/17 04:11:59;;;;;;;6.40;5.80;;;;;;;15.89;94.95;100180.47;5089444;28;21052;-75
2023/06/17 04:14:24;;;;;;;6.27;5.77;;;;;;;15.93;95.08;100182.09;5087156;28;20195;-75
2023/06/17 04:16:49;;;;;;;6.67;6.07;;;;;;;15.99;95.05;100181.91;5082210;28;20278;-74
2023/06/17 04:19:17;;;;;;;6.77;6.27;;;;;;;16.07;95.24;100186.88;5083694;28;20416;-75
2023/06/17 04:21:46;;;;;;;6.90;6.40;;;;;;;16.33;95.14;100186.91;5078821;28;20216;-76
2023/06/17 04:24:11;;;;;;;6.63;5.97;;;;;;;16.57;94.28;100186.03;5084765;28;20295;-75
2023/06/17 04:26:36;;;;;;;7.27;6.60;;;;;;;16.62;92.87;100185.84;5081572;28;20264;-76
2023/06/17 04:29:03;;;;;;;7.20;6.60;;;;;;;16.62;91.79;100185.84;5085238;28;20670;-75
2023/06/17 04:31:28;;;;;;;8.07;6.47;;;;;;;16.61;91.16;100190.25;5079202;28;20202;-75
2023/06/17 04:33:54;;;;;;;7.13;6.53;;;;;;;16.64;91.15;100191.88;5083533;28;20748;-75
2023/06/17 04:36:20;;;;;;;6.73;6.13;;;;;;;16.67;91.39;100186.53;5090359;28;20204;-75
2023/06/17 04:38:49;;;;;;;6.23;5.73;;;;;;;16.84;91.58;100188.53;5088576;28;20213;-76
2023/06/17 04:41:16;;;;;;;6.73;6.03;;;;;;;17.32;91.49;100183.31;5088716;28;21017;-75
2023/06/17 04:43:48;;;;;;;6.63;6.03;;;;;;;18.01;90.00;100182.31;5091346;28;20208;-75
2023/06/17 04:46:16;;;;;;;7.17;6.47;;;;;;;18.77;87.47;100178.22;5085062;28;20181;-76
2023/06/17 04:48:42;;;;;;;7.30;6.70;;;;;;;19.49;85.00;100172.28;5088513;28;20655;-75
2023/06/17 04:51:07;;;;;;;7.10;6.50;;;;;;;20.12;83.20;100174.53;5083821;28;20208;-75
2023/06/17 04:53:32;;;;;;;7.10;6.40;;;;;;;20.74;80.64;100185.34;5089272;28;20177;-75
2023/06/17 04:55:58;;;;;;;6.20;5.60;;;;;;;21.31;78.14;100181.44;5083686;28;20639;-76
2023/06/17 04:58:23;;;;;;;7.37;5.50;;;;;;;21.94;76.13;100179.66;5084156;28;20201;-76
2023/06/17 05:00:48;;;;;;;5.90;5.40;;;;;;;22.45;75.04;100174.06;5077590;28;20255;-75
2023/06/17 05:03:14;;;;;;;6.60;6.00;;;;;;;22.94;73.89;100172.81;5078974;28;20205;-76
2023/06/17 05:05:39;;;;;;;5.77;5.27;;;;;;;23.40;72.60;100173.50;5095376;28;20198;-75
2023/06/17 05:08:05;;;;;;;5.57;5.07;;;;;;;23.82;71.20;100176.06;5088976;28;20282;-76
2023/06/17 05:10:30;;;;;;;5.17;4.77;;;;;;;24.15;70.32;100175.63;5094856;28;20240;-75
2023/06/17 05:12:56;;;;;;;6.03;5.43;;;;;;;24.65;68.65;100177.53;5085558;28;20185;-75
2023/06/17 05:15:21;;;;;;;5.50;5.00;;;;;;;25.05;67.61;100174.72;5089656;28;20197;-75
2023/06/17 05:17:47;;;;;;;5.70;5.30;;;;;;;25.42;66.66;100180.00;5089976;28;20292;-76
2023/06/17 05:20:12;;;;;;;5.60;5.10;;;;;;;25.85;65.49;100177.81;5081121;28;20628;-76
2023/06/17 05:22:38;;;;;;;5.80;5.23;;;;;;;26.14;65.28;100190.69;5085222;28;20201;-75
2023/06/17 05:25:04;;;;;;;5.45;4.95;;;;;;;26.58;64.24;100182.91;5090748;28;20176;-76
2023/06/17 05:27:29;;;;;;;5.35;4.90;;;;;;;26.85;63.95;100179.91;5082859;28;20603;-76
2023/06/17 05:29:54;;;;;;;5.30;4.90;;;;;;;27.22;63.71;100171.66;5083903;28;20211;-76
2023/06/17 05:32:22;;;;;;;4.57;4.18;;;;;;;27.37;63.20;100174.03;5094291;28;20245;-76
2023/06/17 05:34:48;;;;;;;5.30;4.80;;;;;;;27.73;61.78;100182.59;5087711;28;20648;-76
2023/06/17 05:37:13;;;;;;;5.88;4.43;;;;;;;27.97;60.89;100184.19;5081773;28;20177;-76
2023/06/17 05:39:39;;;;;;;5.07;4.57;;;;;;;28.33;59.80;100181.22;5086658;28;20759;-76
2023/06/17 05:42:04;;;;;;;4.63;4.30;;;;;;;28.59;58.97;100185.13;5081119;28;20694;-75
2023/06/17 05:44:29;;;;;;;5.50;4.68;;;;;;;28.89;59.17;100186.09;5081858;28;20181;-75
2023/06/17 05:46:55;;;;;;;5.85;4.65;;;;;;;28.99;58.65;100191.47;5088389;28;20241;-77
2023/06/17 05:49:20;;;;;;;6.82;5.10;;;;;;;28.85;58.56;100191.84;5088708;28;20185;-76
2023/06/17 05:51:45;;;;;;;6.18;5.45;;;;;;;28.96;58.38;100190.91;5076514;28;20197;-76
2023/06/17 05:54:11;;;;;;;9.25;5.55;;;;;;;29.34;58.32;100178.63;5077974;28;20767;-76
2023/06/17 05:56:36;;;;;;;6.90;5.30;;;;;;;29.69;58.60;100190.59;5094705;28;20778;-76
2023/06/17 05:59:01;;;;;;;10.95;6.05;;;;;;;29.80;58.92;100184.25;5079287;28;20249;-75
2023/06/17 06:01:26;;;;;;;12.68;6.00;;;;;;;29.98;58.12;100189.78;5093498;28;20311;-76
2023/06/17 06:03:52;;;;;;;10.85;5.68;;;;;;;30.06;58.73;100187.22;5099426;28;20263;-76
2023/06/17 06:06:17;;;;;;;9.23;5.53;;;;;;;29.58;57.91;100196.91;5100362;28;20200;-77
2023/06/17 06:08:42;;;;;;;8.35;5.20;;;;;;;29.78;57.02;100189.75;5090869;28;20259;-76
2023/06/17 06:11:08;;;;;;;5.13;4.72;;;;;;;30.19;55.37;100196.75;5098024;28;20232;-75
2023/06/17 06:13:33;;;;;;;4.72;4.32;;;;;;;30.43;53.99;100196.25;5091333;28;20191;-76
2023/06/17 06:15:58;;;;;;;5.97;4.88;;;;;;;30.51;54.34;100200.88;5089086;28;20189;-77
2023/06/17 06:18:24;;;;;;;5.43;4.93;;;;;;;31.05;51.64;100198.41;5094364;28;20208;-76
2023/06/17 06:20:49;;;;;;;5.15;4.65;;;;;;;31.07;51.35;100198.25;5095188;28;20197;-76
2023/06/17 06:23:14;;;;;;;5.40;4.82;;;;;;;31.35;51.41;100199.09;5098213;28;20184;-75
2023/06/17 06:25:41;;;;;;;4.70;4.30;;;;;;;31.16;52.09;100198.22;5099587;28;20294;-76
2023/06/17 06:28:06;;;;;;;5.20;4.70;;;;;;;30.96;51.21;100202.81;5090443;28;20185;-75
2023/06/17 06:30:32;;;;;;;5.00;4.65;;;;;;;31.03;52.19;100200.38;5083742;28;20294;-76
2023/06/17 06:32:58;;;;;;;5.10;4.70;;;;;;;31.00;51.88;100201.53;5096683;28;20195;-76
2023/06/17 06:35:23;;;;;;;4.68;4.28;;;;;;;31.20;51.36;100209.47;5095510;28;20655;-75
2023/06/17 06:37:49;;;;;;;5.18;4.78;;;;;;;31.50;51.82;100209.25;5092898;28;20195;-76
2023/06/17 06:40:14;;;;;;;5.47;4.97;;;;;;;31.37;51.68;100215.81;5090140;28;20217;-76
2023/06/17 06:42:40;;;;;;;5.70;5.20;;;;;;;31.35;51.77;100206.28;5087824;28;20304;-76
2023/06/17 06:45:06;;;;;;;5.18;4.75;;;;;;;31.25;50.97;100207.16;5082091;28;20341;-76
2023/06/17 06:47:31;;;;;;;5.07;4.65;;;;;;;30.87;51.38;100214.41;5079105;28;20677;-75
2023/06/17 06:49:56;;;;;;;5.13;4.72;;;;;;;31.09;51.71;100213.16;5093903;28;20224;-76
2023/06/17 06:52:22;;;;;;;4.97;4.68;;;;;;;31.39;50.36;100215.66;5092393;28;20189;-76
2023/06/17 06:54:47;;;;;;;5.25;4.75;;;;;;;31.71;50.12;100214.31;5109917;27;20173;-75
2023/06/17 06:57:12;;;;;;;5.45;5.05;;;;;;;31.83;50.39;100215.78;5085048;28;20237;-76
2023/06/17 06:59:38;;;;;;;5.43;5.03;;;;;;;31.76;50.78;100212.03;5081540;28;20201;-77
2023/06/17 07:02:03;;;;;;;6.05;5.18;;;;;;;31.66;50.80;100217.44;5096420;28;20188;-76
2023/06/17 07:04:28;;;;;;;5.35;4.95;;;;;;;31.60;51.35;100220.72;5086933;28;20223;-75
2023/06/17 07:06:53;;;;;;;5.70;5.30;;;;;;;31.81;50.25;100219.59;5088109;28;20904;-76
2023/06/17 07:09:19;;;;;;;5.78;5.28;;;;;;;31.65;51.10;100220.25;5091740;28;20213;-75
2023/06/17 07:11:44;;;;;;;5.57;5.07;;;;;;;31.75;51.04;100223.72;5093524;28;20279;-77
2023/06/17 07:14:11;;;;;;;6.22;5.80;;;;;;;32.06;49.46;100216.13;5081689;28;20262;-77
2023/06/17 07:16:37;;;;;;;5.78;5.28;;;;;;;32.17;50.00;100214.19;5085431;28;20263;-76
2023/06/17 07:19:02;;;;;;;4.97;4.68;;;;;;;32.35;49.94;100212.34;5079223;28;20951;-75
2023/06/17 07:21:27;;;;;;;5.53;5.13;;;;;;;32.28;50.75;100210.44;5078244;28;20703;-76
2023/06/17 07:23:53;;;;;;;5.60;5.10;;;;;;;32.21;50.12;100219.06;5085696;28;20295;-75
2023/06/17 07:26:18;;;;;;;8.50;5.25;;;;;;;32.36;49.80;100211.34;5090987;28;20554;-77
2023/06/17 07:28:43;;;;;;;6.32;4.95;;;;;;;32.28;50.69;100208.59;5092740;28;20620;-76
2023/06/17 07:31:09;;;;;;;5.72;5.15;;;;;;;32.32;50.78;100209.13;5083147;28;20209;-76
2023/06/17 07:33:34;;;;;;;5.50;5.10;;;;;;;32.52;49.66;100209.75;5091207;28;20176;-77
2023/06/17 07:36:00;;;;;;;6.03;5.43;;;;;;;32.67;49.43;100213.47;5092547;28;20176;-77
2023/06/17 07:38:25;;;;;;;5.20;4.80;;;;;;;32.46;50.06;100205.84;5092947;28;20233;-76
2023/06/17 07:40:51;;;;;;;5.63;5.18;;;;;;;32.39;51.26;100210.19;5093191;28;20606;-76
2023/06/17 07:43:16;;;;;;;5.82;5.32;;;;;;;32.28;51.01;100215.81;5077458;28;20196;-76
2023/06/17 07:45:41;;;;;;;5.55;5.00;;;;;;;32.03;51.76;100213.75;5086779;28;20708;-77
2023/06/17 07:48:07;;;;;;;5.05;4.68;;;;;;;31.95;51.88;100213.69;5094020;28;20212;-77
2023/06/17 07:50:32;;;;;;;5.53;5.00;;;;;;;31.69;52.10;100213.63;5084933;28;20303;-76
2023/06/17 07:52:57;;;;;;;6.32;4.75;;;;;;;31.70;52.48;100213.50;5099209;28;20549;-76
2023/06/17 07:55:23;;;;;;;6.20;5.32;;;;;;;31.75;52.09;100213.88;5084610;28;20268;-76
2023/06/17 07:57:48;;;;;;;5.97;5.43;;;;;;;32.04;50.74;100209.25;5087717;28;20207;-76
2023/06/17 08:00:14;;;;;;;6.65;5.40;;;;;;;32.23;50.17;100205.50;5088122;28;20695;-76
2023/06/17 08:02:41;;;;;;;5.20;4.80;;;;;;;31.87;50.90;100208.28;5094764;28;20241;-77
2023/06/17 08:05:07;;;;;;;5.25;4.75;;;;;;;31.95;51.33;100197.63;5093287;28;20180;-75
2023/06/17 08:07:33;;;;;;;5.20;4.70;;;;;;;32.08;52.45;100197.22;5099743;28;20176;-76
2023/06/17 08:09:58;;;;;;;6.05;4.55;;;;;;;31.21;51.88;100207.63;5094127;28;20750;-76
2023/06/17 08:12:23;;;;;;;5.78;5.28;;;;;;;31.65;50.61;100202.38;5083041;28;20554;-77
2023/06/17 08:14:49;;;;;;;10.02;6.28;;;;;;;30.88;50.65;100205.41;5095079;28;20189;-77
2023/06/17 08:17:14;;;;;;;6.75;5.07;;;;;;;30.80;51.23;100202.59;5085177;28;20181;-76
2023/06/17 08:19:40;;;;;;;5.55;5.05;;;;;;;30.77;51.34;100201.09;5082439;28;21208;-76
2023/06/17 08:22:06;;;;;;;10.88;6.10;;;;;;;31.20;51.66;100204.13;5089937;28;20187;-75
2023/06/17 08:24:32;;;;;;;7.70;5.43;;;;;;;31.31;51.42;100195.88;5080822;28;20212;-76
2023/06/17 08:26:57;;;;;;;8.13;5.40;;;;;;;31.35;51.43;100193.72;5087107;28;20188;-76
2023/06/17 08:29:23;;;;;;;6.05;5.60;;;;;;;30.88;51.73;100194.72;5084447;28;20177;-76
2023/06/17 08:31:50;;;;;;;6.43;5.70;;;;;;;30.06;52.40;100192.56;5080453;28;20196;-76
2023/06/17 08:34:16;;;;;;;5.90;5.18;;;;;;;30.67;52.41;100187.75;5083026;28;20181;-76
2023/06/17 08:36:45;;;;;;;5.80;4.72;;;;;;;31.04;51.66;100187.88;5074773;28;20188;-76
2023/06/17 08:39:11;;;;;;;5.05;4.65;;;;;;;31.20;51.83;100193.44;5080854;28;20221;-77
2023/06/17 08:41:40;;;;;;;5.60;5.20;;;;;;;31.27;51.94;100189.16;5085799;28;20601;-76
2023/06/17 08:44:11;;;;;;;5.78;5.35;;;;;;;31.21;51.22;100192.44;5084516;28;21059;-76
2023/06/17 08:46:38;;;;;;;5.60;5.05;;;;;;;30.91;52.37;100188.22;5083426;28;20176;-76
2023/06/17 08:49:04;;;;;;;5.47;4.97;;;;;;;31.01;53.05;100191.66;5082051;28;20177;-76
2023/06/17 08:51:30;;;;;;;5.30;4.90;;;;;;;31.02;51.71;100194.19;5075670;28;20205;-76
2023/06/17 08:53:57;;;;;;;5.30;4.82;;;;;;;31.04;52.16;100190.53;5086508;28;20197;-75
2023/06/17 08:56:22;;;;;;;5.25;4.85;;;;;;;30.75;51.58;100186.19;5087438;28;20185;-75
2023/06/17 08:58:49;;;;;;;5.40;5.00;;;;;;;30.44;51.60;100184.59;5083857;28;20205;-75
2023/06/17 09:01:16;;;;;;;5.35;4.85;;;;;;;30.30;52.38;100183.25;5082466;28;20207;-76
2023/06/17 09:03:42;;;;;;;5.45;4.97;;;;;;;29.90;52.98;100178.91;5083002;28;20596;-76
2023/06/17 09:06:34;;;;;;;5.75;5.35;;;;;;;29.59;53.69;100179.94;5081653;28;20177;-76
2023/06/17 09:08:59;;;;;;;8.18;5.93;;;;;;;28.69;53.89;100182.50;5083057;28;20212;-76
2023/06/17 09:11:30;;;;;;;6.20;5.70;;;;;;;28.48;54.18;100176.38;5083652;28;20229;-75
2023/06/17 09:13:57;;;;;;;5.75;5.25;;;;;;;28.56;54.47;100174.75;5100255;28;20191;-75
2023/06/17 09:16:28;;;;;;;6.45;5.43;;;;;;;28.47;54.28;100174.69;5077710;28;20190;-76
2023/06/17 09:18:58;;;;;;;6.88;5.47;;;;;;;28.23;53.25;100173.19;5081285;28;20208;-77
2023/06/17 09:21:24;;;;;;;6.23;5.63;;;;;;;28.10;53.69;100176.03;5083234;28;20266;-77
2023/06/17 09:23:57;;;;;;;6.27;5.00;;;;;;;27.92;52.81;100168.59;5083263;28;20214;-76
2023/06/17 09:26:28;;;;;;;5.60;5.10;;;;;;;27.63;52.39;100171.06;5083190;28;20240;-77
2023/06/17 09:29:00;;;;;;;5.50;5.03;;;;;;;27.63;52.57;100168.41;5087352;28;20272;-76
2023/06/17 09:31:26;;;;;;;6.17;5.57;;;;;;;27.39;53.18;100172.94;5080905;28;20300;-77
2023/06/17 09:33:51;;;;;;;6.10;5.60;;;;;;;27.06;53.00;100166.72;5070327;28;20768;-77
2023/06/17 09:36:17;;;;;;;5.50;5.03;;;;;;;27.26;52.89;100161.63;5072861;28;20561;-76
2023/06/17 09:38:43;;;;;;;5.87;5.20;;;;;;;27.31;51.67;100159.41;5093854;27;20212;-77
2023/06/17 09:41:13;;;;;;;8.37;5.73;;;;;;;27.22;51.74;100149.53;5074952;28;20582;-77
2023/06/17 09:43:40;;;;;;;4.97;4.57;;;;;;;27.44;52.57;100159.25;5074486;28;20229;-77
2023/06/17 09:46:06;;;;;;;5.20;4.70;;;;;;;27.61;53.03;100151.72;5075957;28;20765;-76
2023/06/17 09:48:32;;;;;;;5.37;4.87;;;;;;;27.52;52.32;100156.84;5076979;28;20196;-76
2023/06/17 09:50:58;;;;;;;7.33;4.97;;;;;;;27.21;53.17;100153.16;5072304;28;20693;-76
2023/06/17 09:53:29;;;;;;;5.63;5.17;;;;;;;27.56;53.28;100140.63;5076641;28;20279;-77
2023/06/17 09:55:58;;;;;;;6.07;5.43;;;;;;;27.80;53.73;100138.59;5084969;28;20271;-77
2023/06/17 09:58:29;;;;;;;7.27;5.40;;;;;;;27.88;53.08;100134.44;5076776;28;20193;-77
2023/06/17 10:00:56;;;;;;;6.27;4.77;;;;;;;27.52;53.19;100137.38;5088443;28;20231;-77
2023/06/17 10:03:22;;;;;;;7.07;5.87;;;;;;;27.46;53.10;100133.44;5089077;28;20271;-77
2023/06/17 10:05:54;;;;;;;6.23;5.33;;;;;;;27.57;53.00;100129.03;5090696;28;20271;-77
2023/06/17 10:08:21;;;;;;;5.40;4.90;;;;;;;27.34;52.85;100131.75;5089430;28;20725;-78
2023/06/17 10:10:48;;;;;;;5.70;5.20;;;;;;;27.70;53.02;100127.03;5081237;28;20209;-77
2023/06/17 10:13:18;;;;;;;5.80;4.83;;;;;;;27.96;52.45;100124.81;5081959;28;20230;-77
2023/06/17 10:15:45;;;;;;;6.17;5.00;;;;;;;27.97;52.21;100121.19;5084440;28;20241;-76
2023/06/17 10:18:12;;;;;;;5.50;5.00;;;;;;;27.70;51.54;100124.38;5081788;28;20208;-76
2023/06/17 10:20:40;;;;;;;5.27;4.77;;;;;;;27.79;52.54;100120.94;5080790;28;20239;-75
2023/06/17 10:23:05;;;;;;;5.57;5.07;;;;;;;27.71;53.78;100125.22;5090981;28;20736;-76
2023/06/17 10:25:32;;;;;;;7.83;5.07;;;;;;;27.71;53.22;100115.41;5081697;28;20264;-75
2023/06/17 10:27:58;;;;;;;5.83;4.43;;;;;;;27.79;52.83;100120.09;5085169;28;20212;-75
2023/06/17 10:30:28;;;;;;;6.30;5.63;;;;;;;27.74;52.91;100117.81;5090699;28;20220;-75
2023/06/17 10:33:02;;;;;;;6.50;5.60;;;;;;;27.26;51.77;100121.78;5090280;28;20508;-74
2023/06/17 10:35:46;;;;;;;5.20;4.73;;;;;;;27.14;50.42;100117.47;5081173;28;20165;-76
2023/06/17 10:38:29;;;;;;;11.00;5.30;;;;;;;27.36;51.20;100114.72;5079826;28;20654;-76
2023/06/17 10:40:56;;;;;;;5.67;4.90;;;;;;;27.79;50.78;100118.28;5082896;28;20741;-75
2023/06/17 10:43:22;;;;;;;5.60;4.50;;;;;;;27.70;49.75;100111.06;5084601;28;20198;-76
2023/06/17 10:45:56;;;;;;;5.20;4.70;;;;;;;27.47;50.37;100108.56;5089086;28;20278;-75
2023/06/17 10:48:28;;;;;;;4.83;4.37;;;;;;;27.73;49.96;100102.84;5083167;28;20177;-75
2023/06/17 10:51:00;;;;;;;4.57;4.17;;;;;;;27.86;49.98;100104.47;5088840;28;20211;-75
2023/06/17 10:53:36;;;;;;;5.17;4.67;;;;;;;27.47;49.17;100100.56;5084690;28;20177;-76
2023/06/17 10:56:03;;;;;;;6.47;4.60;;;;;;;27.34;49.54;100102.53;5084366;28;20181;-75
2023/06/17 10:58:35;;;;;;;7.07;4.67;;;;;;;27.39;49.05;100098.53;5086280;28;20568;-76
2023/06/17 11:01:03;;;;;;;4.67;4.07;;;;;;;27.24;48.74;100103.28;5090451;27;20299;-76
2023/06/17 11:03:28;;;;;;;4.30;3.90;;;;;;;27.59;48.86;100101.38;5096453;28;20249;-75
2023/06/17 11:06:07;;;;;;;7.03;4.03;;;;;;;27.79;48.85;100098.81;5090804;28;20258;-76
2023/06/17 11:08:34;;;;;;;4.63;4.23;;;;;;;27.72;48.82;100095.00;5080143;28;20181;-78
2023/06/17 11:11:10;;;;;;;5.73;4.40;;;;;;;27.71;48.02;100094.16;5079637;28;20217;-74
2023/06/17 11:13:37;;;;;;;4.83;4.27;;;;;;;27.95;49.10;100096.53;5083408;28;20182;-75
2023/06/17 11:16:03;;;;;;;4.80;4.30;;;;;;;27.80;48.87;100096.06;5080825;28;20201;-76
2023/06/17 11:18:29;;;;;;;5.17;4.10;;;;;;;27.80;49.50;100093.41;5084358;28;20979;-75
2023/06/17 11:20:54;;;;;;;4.57;4.27;;;;;;;27.74;48.98;100087.75;5082472;28;20215;-76
2023/06/17 11:23:20;;;;;;;7.70;4.37;;;;;;;28.05;50.65;100096.59;5083396;28;20181;-76